Time;durP1;ratioP1;P1;durP2;ratioP2;P2;SDS_P1;SDS_P2;PMS_P1;PMS_P2;Temp;Humidity;BMP_temperature;BMP_pressure;BME280_temperature;BME280_humidity;BME280_pressure;Samples;Min_cycle;Max_cycle;Signal;HPM_P1;HPM_P2
2023/06/28 00:01:15;;;;;;;4.97;2.20;;;;;;;-143.48;82.41;118439.88;5060137;28;20122;-79
2023/06/28 00:03:42;;;;;;;5.45;1.95;;;;;;;-143.48;79.51;118439.88;5041695;28;20021;-79
2023/06/28 00:06:07;;;;;;;5.68;2.08;;;;;;;-143.48;81.79;118439.88;5059346;28;20029;-79
2023/06/28 00:08:33;;;;;;;7.20;1.73;;;;;;;-143.48;80.63;118439.88;5026489;28;20457;-79
2023/06/28 00:10:58;;;;;;;6.30;1.80;;;;;;;-143.48;81.16;118439.88;5059746;28;20021;-79
2023/06/28 00:13:24;;;;;;;6.80;2.03;;;;;;;-143.48;78.22;118439.88;5042258;28;20009;-79
2023/06/28 00:15:50;;;;;;;4.18;1.80;;;;;;;-143.48;79.81;118439.88;5025529;28;20049;-80
2023/06/28 00:18:15;;;;;;;7.75;2.30;;;;;;;-143.48;79.79;118439.88;5059401;28;20014;-79
2023/06/28 00:20:41;;;;;;;6.85;2.05;;;;;;;-143.48;80.61;118439.88;5041761;28;20096;-79
2023/06/28 00:23:07;;;;;;;7.60;2.17;;;;;;;-143.48;79.82;118439.88;5059433;28;20029;-78
2023/06/28 00:25:32;;;;;;;7.45;2.20;;;;;;;-143.48;82.07;118439.88;5040822;28;20006;-79
2023/06/28 00:27:58;;;;;;;7.90;2.03;;;;;;;-143.48;80.82;118439.88;5058788;28;20314;-79
2023/06/28 00:30:24;;;;;;;5.07;1.90;;;;;;;-143.48;84.00;118439.88;5059478;28;20032;-78
2023/06/28 00:32:49;;;;;;;5.72;2.22;;;;;;;-143.48;84.69;118439.88;5059283;28;20045;-79
2023/06/28 00:35:14;;;;;;;6.25;2.20;;;;;;;-143.48;82.94;118439.88;5041780;28;19993;-79
2023/06/28 00:37:41;;;;;;;6.25;2.35;;;;;;;-143.48;80.95;118439.88;5058005;28;20001;-79
2023/06/28 00:40:08;;;;;;;7.15;2.70;;;;;;;-143.48;84.33;118439.88;5058619;28;20049;-80
2023/06/28 00:42:34;;;;;;;5.40;2.40;;;;;;;-143.48;84.45;118439.88;5040991;28;20088;-79
2023/06/28 00:44:59;;;;;;;10.82;3.55;;;;;;;-143.48;82.67;118439.88;5041585;28;20029;-79
2023/06/28 00:47:26;;;;;;;7.57;2.60;;;;;;;-143.48;83.17;118439.88;5041234;28;20097;-79
2023/06/28 00:49:54;;;;;;;8.68;2.47;;;;;;;-143.48;82.62;118439.88;5058196;28;20014;-79
2023/06/28 00:52:20;;;;;;;7.10;2.45;;;;;;;-143.48;84.31;118439.88;5041427;28;20029;-79
2023/06/28 00:54:45;;;;;;;9.77;3.00;;;;;;;-143.48;83.10;118439.88;5059143;28;20009;-79
2023/06/28 00:57:11;;;;;;;7.22;2.67;;;;;;;-143.48;84.79;118439.88;5058943;28;20041;-79
2023/06/28 00:59:37;;;;;;;8.02;2.53;;;;;;;-143.48;84.22;118439.88;5041614;28;20002;-79
2023/06/28 01:02:02;;;;;;;7.70;2.58;;;;;;;-143.48;84.85;118439.88;5059084;28;20044;-79
2023/06/28 01:04:28;;;;;;;7.53;2.33;;;;;;;-143.48;83.04;118439.88;5058679;28;20029;-79
2023/06/28 01:06:55;;;;;;;4.95;2.17;;;;;;;-143.48;84.14;118439.88;5058661;28;20025;-79
2023/06/28 01:09:24;;;;;;;9.70;2.30;;;;;;;-143.48;85.15;118439.88;5058804;28;20025;-79
2023/06/28 01:11:52;;;;;;;7.75;2.70;;;;;;;-143.48;85.57;118439.88;5040851;28;20013;-79
2023/06/28 01:14:18;;;;;;;7.00;2.33;;;;;;;-143.48;84.85;118439.88;5040590;28;20013;-79
2023/06/28 01:16:49;;;;;;;7.82;2.33;;;;;;;-143.48;87.99;118439.88;5057713;28;20073;-79
2023/06/28 01:19:15;;;;;;;7.20;2.42;;;;;;;-143.48;88.68;118439.88;5058338;28;20021;-79
2023/06/28 01:21:44;;;;;;;5.65;2.42;;;;;;;-143.48;89.00;118439.88;5040464;28;20033;-79
2023/06/28 01:24:11;;;;;;;8.77;2.50;;;;;;;-143.48;89.57;118439.88;5041171;28;20017;-79
2023/06/28 01:26:37;;;;;;;9.80;2.55;;;;;;;-143.48;88.68;118439.88;5058315;28;20069;-79
2023/06/28 01:29:04;;;;;;;6.63;2.35;;;;;;;-143.48;87.60;118439.88;5058089;28;20013;-79
2023/06/28 01:31:30;;;;;;;5.28;2.33;;;;;;;-143.48;91.35;118439.88;5057834;28;20053;-79
2023/06/28 01:33:55;;;;;;;4.53;2.20;;;;;;;-143.48;91.17;118439.88;5058308;28;20088;-79
2023/06/28 01:36:21;;;;;;;5.07;2.05;;;;;;;-143.48;90.72;118439.88;5056955;28;20006;-79
2023/06/28 01:38:46;;;;;;;7.40;2.30;;;;;;;-143.48;89.08;118439.88;5039473;28;20040;-79
2023/06/28 01:41:12;;;;;;;6.18;2.13;;;;;;;-143.48;90.80;118439.88;5057707;28;20006;-79
2023/06/28 01:43:39;;;;;;;6.60;2.38;;;;;;;-143.48;87.36;118439.88;5057328;28;20025;-79
2023/06/28 01:46:05;;;;;;;7.95;2.20;;;;;;;-143.48;86.00;118439.88;5056936;28;20025;-79
2023/06/28 01:48:31;;;;;;;5.28;1.90;;;;;;;-143.48;85.45;118439.88;5057957;28;20014;-79
2023/06/28 01:50:56;;;;;;;6.15;2.15;;;;;;;-143.48;87.31;118439.88;5057690;28;20441;-78
2023/06/28 01:53:22;;;;;;;5.60;1.75;;;;;;;-143.48;86.61;118439.88;5039606;28;20030;-79
2023/06/28 01:55:48;;;;;;;7.30;1.92;;;;;;;-143.48;90.46;118439.88;5040048;28;20013;-79
2023/06/28 01:58:13;;;;;;;4.45;1.90;;;;;;;-143.48;88.84;118439.88;5040300;28;20021;-79
2023/06/28 02:00:38;;;;;;;4.68;1.80;;;;;;;-143.48;88.49;118439.88;5056745;28;20029;-79
2023/06/28 02:03:04;;;;;;;5.55;1.95;;;;;;;-143.48;89.16;118439.88;5057254;28;20055;-79
2023/06/28 02:05:30;;;;;;;4.50;1.85;;;;;;;-143.48;90.14;118439.88;5038677;28;20021;-79
2023/06/28 02:07:55;;;;;;;6.40;1.90;;;;;;;-143.48;92.35;118439.88;5056808;28;20014;-78
2023/06/28 02:10:24;;;;;;;6.78;2.25;;;;;;;-143.48;89.91;118439.88;5057042;28;20032;-79
2023/06/28 02:12:49;;;;;;;4.18;1.90;;;;;;;-143.48;90.63;118439.88;5039008;28;20012;-78
2023/06/28 02:15:15;;;;;;;6.00;2.50;;;;;;;-143.48;89.66;118439.88;5038849;28;20013;-78
2023/06/28 02:17:40;;;;;;;4.38;2.45;;;;;;;-143.48;92.92;118439.88;5056897;28;20033;-78
2023/06/28 02:20:08;;;;;;;5.40;1.98;;;;;;;-143.48;91.45;118439.88;5056502;28;20006;-79
2023/06/28 02:22:34;;;;;;;5.65;1.95;;;;;;;-143.48;90.41;118439.88;5039308;28;20451;-79
2023/06/28 02:24:59;;;;;;;8.82;2.10;;;;;;;-143.48;89.45;118439.88;5039806;28;20159;-79
2023/06/28 02:27:24;;;;;;;4.53;1.85;;;;;;;-143.48;89.62;118439.88;5056895;28;20030;-79
2023/06/28 02:29:50;;;;;;;5.43;2.00;;;;;;;-143.48;91.77;118439.88;5056911;28;20076;-78
2023/06/28 02:32:15;;;;;;;5.07;2.10;;;;;;;-143.48;90.38;118439.88;5039552;28;20140;-79
2023/06/28 02:34:41;;;;;;;5.15;2.08;;;;;;;-143.48;89.73;118439.88;5040153;28;20009;-80
2023/06/28 02:37:06;;;;;;;5.50;2.33;;;;;;;-143.48;90.04;118439.88;5057610;28;20028;-79
2023/06/28 02:39:31;;;;;;;5.57;2.15;;;;;;;-143.48;89.77;118439.88;5056931;28;20009;-79
2023/06/28 02:41:57;;;;;;;5.25;2.10;;;;;;;-143.48;89.87;118439.88;5056502;28;20017;-79
2023/06/28 02:44:22;;;;;;;3.97;1.90;;;;;;;-143.48;91.18;118439.88;5056313;28;20044;-78
2023/06/28 02:46:48;;;;;;;7.13;2.45;;;;;;;-143.48;90.73;118439.88;5057021;28;20022;-79
2023/06/28 02:49:14;;;;;;;5.22;2.17;;;;;;;-143.48;91.25;118439.88;5040905;28;20029;-78
2023/06/28 02:51:39;;;;;;;4.30;2.03;;;;;;;-143.48;90.96;118439.88;5043265;28;20052;-78
2023/06/28 02:54:04;;;;;;;5.78;2.80;;;;;;;-143.48;92.06;118439.88;5060063;28;20010;-78
2023/06/28 02:56:30;;;;;;;5.50;2.20;;;;;;;-143.48;94.33;118439.88;5059888;28;20040;-79
2023/06/28 02:58:55;;;;;;;4.90;2.28;;;;;;;-143.48;93.01;118439.88;5060612;28;20025;-78
2023/06/28 03:01:21;;;;;;;6.38;2.22;;;;;;;-143.48;94.69;118439.88;5043269;28;20093;-78
2023/06/28 03:03:47;;;;;;;6.97;2.60;;;;;;;-143.48;94.69;118439.88;5043108;28;20076;-78
2023/06/28 03:06:13;;;;;;;4.38;2.20;;;;;;;-143.48;93.60;118439.88;5060181;28;20055;-78
2023/06/28 03:08:38;;;;;;;8.35;2.60;;;;;;;-143.48;94.75;118439.88;5059830;28;20049;-78
2023/06/28 03:11:04;;;;;;;5.95;2.60;;;;;;;-143.48;95.22;118439.88;5041422;28;20489;-78
2023/06/28 03:13:29;;;;;;;6.70;2.47;;;;;;;-143.48;94.88;118439.88;5025663;28;20077;-78
2023/06/28 03:15:55;;;;;;;7.35;2.40;;;;;;;-143.48;94.49;118439.88;5059922;28;20105;-78
2023/06/28 03:18:20;;;;;;;4.90;2.30;;;;;;;-143.48;93.35;118439.88;5060672;28;20006;-79
2023/06/28 03:20:45;;;;;;;5.97;2.70;;;;;;;-143.48;94.26;118439.88;5061288;28;20053;-78
2023/06/28 03:23:11;;;;;;;10.52;2.70;;;;;;;-143.48;95.95;118439.88;5061027;28;20083;-79
2023/06/28 03:25:36;;;;;;;6.93;2.65;;;;;;;-143.48;95.56;118439.88;5043739;28;20076;-79
2023/06/28 03:28:01;;;;;;;8.38;2.50;;;;;;;-143.48;96.24;118439.88;5060805;28;20014;-79
2023/06/28 03:30:27;;;;;;;6.40;2.55;;;;;;;-143.48;94.99;118439.88;5043591;28;20075;-79
2023/06/28 03:32:52;;;;;;;7.30;2.80;;;;;;;-143.48;95.55;118439.88;5060850;28;20050;-79
2023/06/28 03:35:18;;;;;;;8.05;2.92;;;;;;;-143.48;95.49;118439.88;5060832;28;20037;-79
2023/06/28 03:37:53;;;;;;;10.88;3.08;;;;;;;-143.48;97.78;118439.88;5043300;28;20048;-79
2023/06/28 03:40:20;;;;;;;6.53;2.70;;;;;;;-143.48;98.00;118439.88;5060629;28;20032;-79
2023/06/28 03:42:45;;;;;;;9.18;3.00;;;;;;;-143.48;97.98;118439.88;5043668;28;20030;-79
2023/06/28 03:45:11;;;;;;;9.13;3.45;;;;;;;-143.48;96.94;118439.88;5043329;28;20017;-79
2023/06/28 03:47:36;;;;;;;10.35;3.38;;;;;;;-143.48;97.60;118439.88;5060752;28;20056;-79
2023/06/28 03:50:02;;;;;;;6.90;3.35;;;;;;;-143.48;96.93;118439.88;5043300;28;20374;-79
2023/06/28 03:52:28;;;;;;;7.35;3.05;;;;;;;-143.48;98.57;118439.88;5042978;28;20061;-78
2023/06/28 03:54:54;;;;;;;9.77;3.75;;;;;;;-143.48;97.37;118439.88;5043478;28;20060;-78
2023/06/28 03:57:21;;;;;;;7.43;3.28;;;;;;;-143.48;97.61;118439.88;5060788;28;20022;-78
2023/06/28 03:59:46;;;;;;;7.35;3.33;;;;;;;-143.48;99.09;118439.88;5042616;28;20014;-78
2023/06/28 04:02:12;;;;;;;9.48;3.90;;;;;;;-143.48;99.46;118439.88;5059827;28;20077;-79
2023/06/28 04:04:37;;;;;;;8.00;3.90;;;;;;;-143.48;100.00;118439.88;5042955;28;20017;-78
2023/06/28 04:07:03;;;;;;;6.88;3.63;;;;;;;-143.48;100.00;118439.88;5059228;28;20009;-79
2023/06/28 04:09:28;;;;;;;12.98;4.22;;;;;;;-143.48;100.00;118439.88;5043642;28;20133;-79
2023/06/28 04:11:54;;;;;;;13.82;4.38;;;;;;;-143.48;100.00;118439.88;5043114;28;20114;-79
2023/06/28 04:14:19;;;;;;;9.73;4.03;;;;;;;-143.48;100.00;118439.88;5042897;28;20084;-79
2023/06/28 04:16:45;;;;;;;9.00;4.45;;;;;;;-143.48;100.00;118439.88;5059896;28;20021;-79
2023/06/28 04:19:10;;;;;;;14.30;5.10;;;;;;;-143.48;100.00;118439.88;5060196;28;20013;-79
2023/06/28 04:21:35;;;;;;;11.95;4.60;;;;;;;-143.48;100.00;118439.88;5043225;28;20037;-79
2023/06/28 04:24:01;;;;;;;9.55;4.90;;;;;;;-143.48;100.00;118439.88;5026864;28;20013;-79
2023/06/28 04:26:26;;;;;;;10.60;4.40;;;;;;;-143.48;100.00;118439.88;5060483;28;20077;-79
2023/06/28 04:28:51;;;;;;;11.50;4.53;;;;;;;-143.48;100.00;118439.88;5043150;28;20026;-79
2023/06/28 04:31:17;;;;;;;11.13;4.85;;;;;;;-143.48;100.00;118439.88;5043533;28;20045;-79
2023/06/28 04:33:42;;;;;;;13.23;5.32;;;;;;;-143.48;100.00;118439.88;5043115;28;20009;-79
2023/06/28 04:36:09;;;;;;;12.95;4.57;;;;;;;-143.48;100.00;118439.88;5060649;28;20077;-80
2023/06/28 04:38:34;;;;;;;13.07;4.75;;;;;;;-143.48;100.00;118439.88;5060334;28;20021;-79
2023/06/28 04:41:00;;;;;;;13.55;5.20;;;;;;;-143.48;100.00;118439.88;5043384;28;20080;-79
2023/06/28 04:43:25;;;;;;;12.82;5.00;;;;;;;-143.48;100.00;118439.88;5026744;28;20040;-79
2023/06/28 04:45:51;;;;;;;16.33;5.20;;;;;;;-143.48;100.00;118439.88;5043224;28;20030;-79
2023/06/28 04:48:16;;;;;;;12.93;5.10;;;;;;;-143.48;100.00;118439.88;5060146;28;20013;-79
2023/06/28 04:50:42;;;;;;;9.68;5.35;;;;;;;-143.48;100.00;118439.88;5060260;28;20350;-79
2023/06/28 04:53:07;;;;;;;15.63;5.50;;;;;;;-143.48;100.00;118439.88;5043241;28;20009;-79
2023/06/28 04:55:34;;;;;;;13.45;5.60;;;;;;;-143.48;100.00;118439.88;5026269;28;20017;-79
2023/06/28 04:58:05;;;;;;;11.95;5.20;;;;;;;-143.48;100.00;118439.88;5059763;28;20017;-79
2023/06/28 05:00:31;;;;;;;12.88;5.40;;;;;;;-143.48;100.00;118439.88;5059864;28;20085;-78
2023/06/28 05:02:58;;;;;;;11.05;5.57;;;;;;;-143.48;100.00;118439.88;5042585;28;20014;-79
2023/06/28 05:05:24;;;;;;;14.15;5.93;;;;;;;-143.48;100.00;118439.88;5059723;28;20021;-79
2023/06/28 05:07:52;;;;;;;13.32;5.43;;;;;;;-143.48;100.00;118439.88;5059761;28;20014;-79
2023/06/28 05:10:18;;;;;;;13.25;5.70;;;;;;;-143.48;100.00;118439.88;5042491;28;20021;-79
2023/06/28 05:12:43;;;;;;;16.45;6.05;;;;;;;-143.48;100.00;118439.88;5025227;28;20009;-79
2023/06/28 05:15:09;;;;;;;11.88;5.78;;;;;;;-143.48;100.00;118439.88;5066843;23;20123;-28
2023/06/28 05:17:35;;;;;;;15.10;6.10;;;;;;;-143.48;100.00;118439.88;5034411;28;20040;-28
2023/06/28 05:20:00;;;;;;;15.50;6.10;;;;;;;-143.48;100.00;118439.88;5034942;28;20033;-29
2023/06/28 05:22:27;;;;;;;13.85;6.57;;;;;;;-143.48;100.00;118439.88;5034330;28;20504;-28
2023/06/28 05:24:52;;;;;;;13.90;6.35;;;;;;;-143.48;100.00;118439.88;5034361;28;20025;-27
2023/06/28 05:27:19;;;;;;;17.15;6.43;;;;;;;-143.48;100.00;118439.88;5034562;28;20032;-28
2023/06/28 05:29:45;;;;;;;15.95;6.65;;;;;;;-143.48;100.00;118439.88;5034891;28;20033;-27
2023/06/28 05:32:10;;;;;;;10.68;6.60;;;;;;;-143.48;100.00;118439.88;5034477;28;20044;-27
2023/06/28 05:34:35;;;;;;;15.18;6.75;;;;;;;-143.48;100.00;118439.88;5034467;28;20472;-29
2023/06/28 05:37:01;;;;;;;15.70;6.65;;;;;;;-143.48;100.00;118439.88;5034212;28;20013;-28
2023/06/28 05:39:26;;;;;;;16.73;7.05;;;;;;;-143.48;100.00;118439.88;5034315;28;20068;-28
2023/06/28 05:41:51;;;;;;;11.40;6.57;;;;;;;-143.48;100.00;118439.88;5034321;28;20062;-28
2023/06/28 05:44:20;;;;;;;18.17;6.82;;;;;;;-143.48;100.00;118439.88;5034299;28;20063;-28
2023/06/28 05:46:46;;;;;;;14.98;6.47;;;;;;;-143.48;100.00;118439.88;5034489;28;20025;-29
2023/06/28 05:49:11;;;;;;;15.48;7.28;;;;;;;-143.48;100.00;118439.88;5033989;28;20029;-28
2023/06/28 05:51:37;;;;;;;13.90;6.95;;;;;;;-143.48;100.00;118439.88;5034148;28;20022;-28
2023/06/28 05:54:02;;;;;;;17.17;7.32;;;;;;;-143.48;100.00;118439.88;5033799;28;20029;-28
2023/06/28 05:56:29;;;;;;;17.40;7.93;;;;;;;-143.48;100.00;118439.88;5033804;28;20049;-28
2023/06/28 05:58:56;;;;;;;14.50;6.97;;;;;;;-143.48;100.00;118439.88;5034062;28;20401;-29
2023/06/28 06:01:21;;;;;;;14.93;6.90;;;;;;;-143.48;100.00;118439.88;5033725;28;20037;-28
2023/06/28 06:03:47;;;;;;;18.27;7.00;;;;;;;-143.48;100.00;118439.88;5033784;28;20029;-28
2023/06/28 06:06:12;;;;;;;15.77;7.53;;;;;;;-143.48;100.00;118439.88;5015781;28;20049;-28
2023/06/28 06:08:37;;;;;;;14.93;7.47;;;;;;;-143.48;100.00;118439.88;5033770;28;20025;-28
2023/06/28 06:11:03;;;;;;;14.02;6.85;;;;;;;-143.48;100.00;118439.88;5033869;28;20052;-28
2023/06/28 06:13:29;;;;;;;19.65;7.53;;;;;;;-143.48;100.00;118439.88;5033866;28;20478;-28
2023/06/28 06:15:54;;;;;;;17.63;7.60;;;;;;;-143.48;100.00;118439.88;5033719;28;20521;-27
2023/06/28 06:18:20;;;;;;;17.83;7.80;;;;;;;-143.48;100.00;118439.88;5033574;28;20104;-27
2023/06/28 06:20:45;;;;;;;13.80;7.45;;;;;;;-143.48;100.00;118439.88;5033688;28;20105;-27
2023/06/28 06:23:11;;;;;;;16.27;7.68;;;;;;;-143.48;100.00;118439.88;5033130;28;20026;-27
2023/06/28 06:25:36;;;;;;;13.80;7.25;;;;;;;-143.48;100.00;118439.88;5031298;28;20083;-28
2023/06/28 06:28:01;;;;;;;16.67;8.10;;;;;;;-143.48;100.00;118439.88;5031346;28;20453;-27
2023/06/28 06:30:27;;;;;;;18.35;7.50;;;;;;;-143.48;100.00;118439.88;5031623;28;20034;-27
2023/06/28 06:32:52;;;;;;;20.23;7.90;;;;;;;-143.48;100.00;118439.88;5031651;28;20080;-28
2023/06/28 06:35:17;;;;;;;15.90;7.35;;;;;;;-143.48;100.00;118439.88;5031556;28;20092;-28
2023/06/28 06:37:45;;;;;;;20.98;8.18;;;;;;;-143.48;100.00;118439.88;5031675;28;20057;-28
2023/06/28 06:40:11;;;;;;;21.80;8.07;;;;;;;-143.48;100.00;118439.88;5033435;28;20084;-28
2023/06/28 06:42:36;;;;;;;24.77;8.18;;;;;;;-143.48;100.00;118439.88;5015673;28;20030;-28
2023/06/28 06:45:02;;;;;;;18.02;8.30;;;;;;;-143.48;100.00;118439.88;5033159;28;20025;-29
2023/06/28 06:47:27;;;;;;;20.08;8.48;;;;;;;-143.48;100.00;118439.88;5033562;28;20368;-29
2023/06/28 06:49:53;;;;;;;21.92;7.85;;;;;;;-143.48;100.00;118439.88;5033550;28;20017;-28
2023/06/28 06:52:18;;;;;;;19.98;8.27;;;;;;;-143.48;100.00;118439.88;5015546;28;20029;-28
2023/06/28 06:54:43;;;;;;;15.25;8.10;;;;;;;-143.48;100.00;118439.88;5033757;28;20083;-28
2023/06/28 06:57:09;;;;;;;18.52;8.50;;;;;;;-143.48;100.00;118439.88;5033271;28;20135;-28
2023/06/28 06:59:34;;;;;;;16.55;7.95;;;;;;;-143.48;100.00;118439.88;5033497;28;20120;-28
2023/06/28 07:01:59;;;;;;;19.65;7.97;;;;;;;-143.48;100.00;118439.88;5033446;28;20528;-28
2023/06/28 07:04:25;;;;;;;16.70;8.57;;;;;;;-143.48;100.00;118439.88;5033357;28;20036;-29
2023/06/28 07:06:50;;;;;;;20.85;8.20;;;;;;;-143.48;100.00;118439.88;5033075;28;20018;-28
2023/06/28 07:09:17;;;;;;;18.25;8.98;;;;;;;-143.48;100.00;118439.88;5033094;28;20022;-28
2023/06/28 07:11:43;;;;;;;16.52;8.15;;;;;;;-143.48;100.00;118439.88;5033075;28;20029;-28
2023/06/28 07:14:08;;;;;;;19.10;8.50;;;;;;;-143.48;100.00;118439.88;5033372;28;20044;-28
2023/06/28 07:16:34;;;;;;;19.00;8.57;;;;;;;-143.48;100.00;118439.88;5033099;28;20396;-28
2023/06/28 07:18:59;;;;;;;20.05;8.50;;;;;;;-143.48;100.00;118439.88;5033221;28;20025;-29
2023/06/28 07:21:25;;;;;;;18.25;7.90;;;;;;;-143.48;100.00;118439.88;5032927;28;20032;-28
2023/06/28 07:23:50;;;;;;;16.20;7.72;;;;;;;-143.48;100.00;118439.88;5032772;28;20357;-28
2023/06/28 07:26:15;;;;;;;20.95;8.38;;;;;;;-143.48;100.00;118439.88;5032756;28;20361;-28
2023/06/28 07:28:41;;;;;;;22.55;8.40;;;;;;;-143.48;100.00;118439.88;5033247;28;20357;-28
2023/06/28 07:31:06;;;;;;;20.30;8.45;;;;;;;-143.48;100.00;118439.88;5032891;28;20029;-28
2023/06/28 07:33:32;;;;;;;19.95;8.48;;;;;;;-143.48;100.00;118439.88;5032778;28;20029;-28
2023/06/28 07:35:57;;;;;;;21.30;8.50;;;;;;;-143.48;100.00;118439.88;5035230;28;20028;-28
2023/06/28 07:38:23;;;;;;;20.00;8.75;;;;;;;-143.48;100.00;118439.88;5036520;28;20043;-28
2023/06/28 07:40:49;;;;;;;21.00;8.23;;;;;;;-143.48;100.00;118439.88;5036475;28;20029;-29
2023/06/28 07:43:16;;;;;;;17.48;7.82;;;;;;;-143.48;100.00;118439.88;5036801;28;20029;-28
2023/06/28 07:45:41;;;;;;;18.33;8.10;;;;;;;-143.48;100.00;118439.88;5018668;28;20030;-28
2023/06/28 07:48:07;;;;;;;23.23;7.85;;;;;;;-143.48;100.00;118439.88;5036338;28;20029;-29
2023/06/28 07:50:33;;;;;;;23.23;8.10;;;;;;;-143.48;100.00;118439.88;5036611;28;20104;-29
2023/06/28 07:52:58;;;;;;;19.13;8.32;;;;;;;-143.48;100.00;118439.88;5036299;28;20033;-28
2023/06/28 07:55:24;;;;;;;20.00;7.68;;;;;;;-143.48;100.00;118439.88;5036385;28;20024;-28
2023/06/28 07:57:49;;;;;;;18.75;8.00;;;;;;;-143.48;100.00;118439.88;5035991;28;20499;-28
2023/06/28 08:00:15;;;;;;;15.95;7.82;;;;;;;-143.48;100.00;118439.88;5035612;28;20040;-28
2023/06/28 08:02:41;;;;;;;16.80;8.32;;;;;;;-143.48;100.00;118439.88;5033621;28;20021;-28
2023/06/28 08:05:07;;;;;;;18.50;7.90;;;;;;;-143.48;100.00;118439.88;5017494;28;20475;-28
2023/06/28 08:07:33;;;;;;;17.27;7.50;;;;;;;-143.48;100.00;118439.88;5035243;28;20025;-28
2023/06/28 08:09:59;;;;;;;15.88;7.75;;;;;;;-143.48;100.00;118439.88;5035254;28;20040;-28
2023/06/28 08:12:24;;;;;;;18.23;7.68;;;;;;;-143.48;100.00;118439.88;5035269;28;20025;-28
2023/06/28 08:14:49;;;;;;;19.90;8.07;;;;;;;-143.48;100.00;118439.88;5035921;28;20460;-29
2023/06/28 08:17:15;;;;;;;20.33;7.82;;;;;;;-143.48;100.00;118439.88;5036183;28;20400;-28
2023/06/28 08:19:40;;;;;;;16.60;7.20;;;;;;;-143.48;100.00;118439.88;5036028;28;20119;-29
2023/06/28 08:22:05;;;;;;;18.55;7.45;;;;;;;-143.48;100.00;118439.88;5035774;28;20025;-28
2023/06/28 08:24:31;;;;;;;17.90;7.75;;;;;;;-143.48;100.00;118439.88;5035640;28;20033;-28
2023/06/28 08:26:56;;;;;;;18.95;7.80;;;;;;;-143.48;100.00;118439.88;5035311;28;20028;-28
2023/06/28 08:29:22;;;;;;;16.08;7.68;;;;;;;-143.48;100.00;118439.88;5035269;28;20057;-28
2023/06/28 08:31:47;;;;;;;20.05;7.18;;;;;;;-143.48;100.00;118439.88;5035622;28;20025;-29
2023/06/28 08:34:13;;;;;;;21.48;7.75;;;;;;;-143.48;100.00;118439.88;5035808;28;20029;-28
2023/06/28 08:36:38;;;;;;;20.20;8.43;;;;;;;-143.48;100.00;118439.88;5035403;28;20028;-28
2023/06/28 08:39:03;;;;;;;19.55;7.53;;;;;;;-143.48;99.82;118439.88;5035707;28;20104;-28
2023/06/28 08:41:30;;;;;;;18.85;7.82;;;;;;;-143.48;98.80;118439.88;5035383;28;20108;-28
2023/06/28 08:43:58;;;;;;;17.95;7.78;;;;;;;-143.48;97.91;118439.88;5035532;28;20029;-29
2023/06/28 08:46:25;;;;;;;20.67;7.82;;;;;;;-143.48;97.34;118439.88;5035804;28;20064;-29
2023/06/28 08:48:52;;;;;;;20.70;7.22;;;;;;;-143.48;97.78;118439.88;5035588;28;20017;-27
2023/06/28 08:51:18;;;;;;;16.55;7.72;;;;;;;-143.48;97.35;118439.88;5035206;28;20087;-27
2023/06/28 08:53:46;;;;;;;20.88;7.68;;;;;;;-143.48;95.93;118439.88;5035351;28;20034;-27
2023/06/28 08:56:12;;;;;;;13.02;7.30;;;;;;;-143.48;96.51;118439.88;5035109;28;20013;-27
2023/06/28 08:58:38;;;;;;;19.42;8.23;;;;;;;-143.48;96.77;118439.88;5035333;28;20025;-27
2023/06/28 09:01:04;;;;;;;18.48;7.43;;;;;;;-143.48;96.06;118439.88;5035007;28;20032;-27
2023/06/28 09:03:30;;;;;;;19.83;7.60;;;;;;;-143.48;96.54;118439.88;5035080;28;20060;-28
2023/06/28 09:05:56;;;;;;;23.38;7.53;;;;;;;-143.48;94.12;118439.88;5035402;28;20084;-28
2023/06/28 09:08:22;;;;;;;14.20;6.82;;;;;;;-143.48;94.61;118439.88;5034871;28;20427;-28
2023/06/28 09:10:48;;;;;;;17.48;7.65;;;;;;;-143.48;93.39;118439.88;5034768;28;20029;-28
2023/06/28 09:13:19;;;;;;;15.95;7.05;;;;;;;-143.48;94.85;118439.88;5035832;28;20048;-28
2023/06/28 09:15:46;;;;;;;20.50;7.43;;;;;;;-143.48;94.82;118439.88;5034731;28;20041;-28
2023/06/28 09:18:11;;;;;;;17.25;7.22;;;;;;;-143.48;92.94;118439.88;5035125;28;20029;-29
2023/06/28 09:20:37;;;;;;;19.27;7.45;;;;;;;-143.48;93.03;118439.88;5035006;28;20021;-28
2023/06/28 09:23:04;;;;;;;19.52;7.70;;;;;;;-143.48;90.26;118439.88;5034700;28;20030;-28
2023/06/28 09:25:31;;;;;;;17.23;7.68;;;;;;;-143.48;90.95;118439.88;5033357;28;20022;-28
2023/06/28 09:27:58;;;;;;;17.75;7.65;;;;;;;-143.48;88.10;118439.88;5034785;28;20431;-28
2023/06/28 09:30:24;;;;;;;18.52;7.55;;;;;;;-143.48;87.82;118439.88;5034027;28;20025;-29
2023/06/28 09:32:52;;;;;;;16.40;7.35;;;;;;;-143.48;86.36;118439.88;5032315;28;20033;-28
2023/06/28 09:35:18;;;;;;;15.93;7.40;;;;;;;-143.48;87.54;118439.88;5032250;28;20017;-28
2023/06/28 09:37:54;;;;;;;22.48;7.47;;;;;;;-143.48;87.63;118439.88;5032479;28;20388;-28
2023/06/28 09:40:20;;;;;;;17.50;7.60;;;;;;;-143.48;87.85;118439.88;5032408;28;20029;-27
2023/06/28 09:42:47;;;;;;;17.55;7.65;;;;;;;-143.48;86.66;118439.88;5032187;28;20088;-27
2023/06/28 09:45:36;;;;;;;22.65;7.53;;;;;;;-143.48;86.02;118439.88;5031965;28;20045;-28
2023/06/28 09:48:05;;;;;;;15.90;7.72;;;;;;;-143.48;85.15;118439.88;5034133;28;20032;-28
2023/06/28 09:50:36;;;;;;;15.82;7.00;;;;;;;-143.48;84.74;118439.88;5034435;28;20026;-28
2023/06/28 09:53:02;;;;;;;18.92;7.43;;;;;;;-143.48;85.41;118439.88;5034358;28;20357;-28
2023/06/28 09:55:28;;;;;;;18.67;7.85;;;;;;;-143.48;85.21;118439.88;5032775;28;20100;-28
2023/06/28 09:57:56;;;;;;;16.95;7.65;;;;;;;-143.48;85.43;118439.88;5031786;28;20421;-27
2023/06/28 10:00:23;;;;;;;16.90;8.15;;;;;;;-143.48;84.05;118439.88;5032040;28;20500;-28
2023/06/28 10:02:49;;;;;;;22.40;8.05;;;;;;;-143.48;81.72;118439.88;5031186;28;20079;-27
2023/06/28 10:05:15;;;;;;;17.05;8.27;;;;;;;-143.48;78.90;118439.88;5032104;28;20113;-28
2023/06/28 10:07:42;;;;;;;14.30;7.78;;;;;;;-143.48;78.97;118439.88;5032418;28;20109;-28
2023/06/28 10:10:08;;;;;;;28.30;10.10;;;;;;;-143.48;80.19;118439.88;5032459;28;20029;-28
2023/06/28 10:12:36;;;;;;;20.13;8.32;;;;;;;-143.48;79.05;118439.88;5033832;28;20108;-28
2023/06/28 10:15:12;;;;;;;18.35;8.43;;;;;;;-143.48;76.96;118439.88;5015774;28;20074;-28
2023/06/28 10:17:38;;;;;;;20.70;8.27;;;;;;;-143.48;75.67;118439.88;5033878;28;20421;-28
2023/06/28 10:20:06;;;;;;;23.10;8.75;;;;;;;-143.48;74.41;118439.88;5033844;28;20026;-29
2023/06/28 10:22:32;;;;;;;19.42;9.13;;;;;;;-143.48;73.68;118439.88;5033926;28;20029;-28
2023/06/28 10:25:01;;;;;;;19.10;8.70;;;;;;;-143.48;73.37;118439.88;5033481;28;20021;-28
2023/06/28 10:27:27;;;;;;;21.52;9.52;;;;;;;-143.48;73.29;118439.88;5033542;28;20468;-28
2023/06/28 10:29:54;;;;;;;24.60;8.48;;;;;;;-143.48;71.07;118439.88;5033541;28;20026;-29
2023/06/28 10:32:20;;;;;;;18.20;8.70;;;;;;;-143.48;68.24;118439.88;5033347;28;20025;-28
2023/06/28 10:34:48;;;;;;;18.17;9.07;;;;;;;-143.48;71.10;118439.88;5033307;28;20495;-28
2023/06/28 10:37:19;;;;;;;21.95;9.30;;;;;;;-143.48;70.31;118439.88;5032632;28;20468;-29
2023/06/28 10:39:45;;;;;;;17.27;9.32;;;;;;;-143.48;67.42;118439.88;5033209;28;20017;-28
2023/06/28 10:42:11;;;;;;;18.40;9.18;;;;;;;-143.48;70.96;118439.88;5033246;28;20033;-29
2023/06/28 10:44:56;;;;;;;21.15;10.48;;;;;;;-143.48;67.58;118439.88;5033783;28;20369;-28
2023/06/28 10:47:22;;;;;;;19.17;10.02;;;;;;;-143.48;67.79;118439.88;5033799;28;20036;-29
2023/06/28 10:50:07;;;;;;;21.20;10.02;;;;;;;-143.48;67.95;118439.88;5033193;28;20480;-29
2023/06/28 10:52:32;;;;;;;21.38;9.82;;;;;;;-143.48;70.73;118439.88;5033438;28;20067;-28
2023/06/28 10:54:58;;;;;;;21.10;10.82;;;;;;;-143.48;70.87;118439.88;5033156;28;20492;-29
2023/06/28 10:57:36;;;;;;;19.27;10.93;;;;;;;-143.48;73.90;118439.88;5033030;28;20036;-29